Change the Weather History Date:

Monday, May 27, 2013

  Actual Average Record
Temperature  
Mean Temperature 52 °F -  
Max Temperature 56 °F 66 °F 89 °F (2012)
Min Temperature 50 °F 51 °F 32 °F (2011)
Degree Days  
Heating Degree Days 12    
Growing Degree Days 2 (Base 50)    
Moisture  
Dew Point 52 °F    
Average Humidity 95    
Maximum Humidity 100    
Minimum Humidity 61    
Precipitation  
Precipitation 0.40 in - - ()
Sea Level Pressure  
Sea Level Pressure 29.94 in    
Wind  
Wind Speed 12 mph (East)    
Max Wind Speed 21 mph    
Max Gust Speed 25 mph    
Visibility 8 miles    
Events Rain    
Averages and records for this station are not official NWS values.
T = Trace of Precipitation, MM = Missing Value Source: NWS Daily Summary

Daily Weather History Graph

Daily Weather History Graph

Search for Another Location

Airport or City:

Trip Planner

Search our weather history database for the weather conditions in past years. The results will help you decide how hot, cold, wet, or windy it might be!

Date:

Astronomy

May. 27, 2013 Rise Set
Actual Time 5:24 AM CDT 8:32 PM CDT
Civil Twilight 4:49 AM CDT 9:07 PM CDT
Nautical Twilight 4:04 AM CDT 9:52 PM CDT
Astronomical Twilight 3:10 AM CDT 10:46 PM CDT
Moon 11:09 PM CDT (5/27) 8:03 AM CDT (5/27)
Length of Visible Light 16h 18m
Length of Day
15h 08m
Waning Gibbous, 91% of the Moon is Illuminated
May 27
Waning Gibbous
May 31
Last Quarter
Jun 8
New
Jun 16
First Quarter
Jun 23
Full

Hourly Weather History & Observations

Time (CDT) Temp. Dew Point Humidity Pressure Visibility Wind Dir Wind Speed Gust Speed Precip Events Conditions
4:58 AM 53.8 °F 41.9 °F 64% 30.06 in 10.0 mi East 6.9 mph - N/A   Overcast
5:58 AM 54.0 °F 40.6 °F 61% 30.07 in 10.0 mi ESE 8.1 mph - N/A   Overcast
6:08 AM 53.6 °F 41.0 °F 62% 30.05 in 10.0 mi East 5.8 mph - N/A   Overcast
8:58 AM 55.0 °F 49.3 °F 81% 30.05 in 10.0 mi ESE 13.8 mph - N/A   Overcast
9:54 AM 53.6 °F 51.8 °F 94% 29.99 in 8.0 mi ESE 15.0 mph 23.0 mph N/A   Overcast
9:56 AM 53.6 °F 51.8 °F 94% 29.99 in 8.0 mi ESE 17.3 mph 23.0 mph N/A   Overcast
10:19 AM 53.6 °F 51.8 °F 94% 30.00 in 10.0 mi ESE 12.7 mph 21.9 mph N/A   Overcast
10:55 AM 53.6 °F 51.8 °F 94% 30.02 in 10.0 mi East 11.5 mph - N/A   Overcast
10:58 AM 54.3 °F 51.3 °F 89% 30.04 in 10.0 mi East 12.7 mph - N/A   Overcast
11:58 AM 54.9 °F 51.8 °F 89% 30.03 in 9.0 mi East 12.7 mph 21.9 mph N/A   Overcast
12:05 PM 55.4 °F 51.8 °F 88% 30.00 in 9.0 mi East 13.8 mph - N/A   Light Drizzle
12:14 PM 55.4 °F 51.8 °F 88% 29.99 in 10.0 mi East 20.7 mph 25.3 mph N/A   Overcast
12:19 PM 55.4 °F 51.8 °F 88% 30.00 in 10.0 mi East 15.0 mph 25.3 mph N/A   Overcast
12:58 PM 55.6 °F 52.3 °F 89% 30.00 in 10.0 mi East 17.3 mph 24.2 mph 0.00 in   Overcast
1:34 PM 55.4 °F 53.6 °F 94% 29.97 in 10.0 mi East 18.4 mph 23.0 mph N/A   Light Drizzle
1:46 PM 55.4 °F 53.6 °F 94% 29.96 in 10.0 mi East 16.1 mph - N/A   Overcast
1:58 PM 55.9 °F 53.8 °F 92% 29.98 in 10.0 mi ESE 13.8 mph - 0.00 in   Overcast
2:33 PM 55.4 °F 53.6 °F 94% 29.97 in 10.0 mi ESE 8.1 mph 20.7 mph N/A   Light Drizzle
2:45 PM 55.4 °F 53.6 °F 94% 29.97 in 4.0 mi SE 8.1 mph - N/A   Overcast
2:48 PM 55.4 °F 53.6 °F 94% 29.97 in 4.0 mi SE 8.1 mph - N/A Rain Light Rain
2:58 PM 55.0 °F 54.0 °F 96% 29.99 in 9.0 mi SE 6.9 mph - 0.02 in Rain Light Rain
3:03 PM 55.4 °F 53.6 °F 94% 29.97 in 10.0 mi ESE 6.9 mph - N/A Rain Light Rain
3:33 PM 55.4 °F 53.6 °F 94% 29.96 in 5.0 mi East 12.7 mph - N/A Rain Light Rain
3:43 PM 55.4 °F 53.6 °F 94% 29.95 in 1.8 mi East 10.4 mph - N/A Rain Rain
3:52 PM 55.4 °F 53.6 °F 94% 29.94 in 2.5 mi East 13.8 mph - N/A Rain Light Rain
3:58 PM 55.4 °F 53.6 °F 94% 29.96 in 3.0 mi East 13.8 mph - 0.17 in Rain Light Rain
4:23 PM 55.4 °F 55.4 °F 100% 29.93 in 4.0 mi East 10.4 mph - N/A Rain Light Rain
4:24 PM 55.4 °F 55.4 °F 100% 29.93 in 4.0 mi East 11.5 mph - N/A   Overcast
4:29 PM 55.4 °F 55.4 °F 100% 29.93 in 5.0 mi East 12.7 mph - N/A   Overcast
4:33 PM 55.4 °F 55.4 °F 100% 29.93 in 6.0 mi East 11.5 mph - N/A Rain Light Rain
4:43 PM 55.4 °F 55.4 °F 100% 29.93 in 10.0 mi East 11.5 mph - N/A Rain Light Rain
4:53 PM 53.6 °F 53.6 °F 100% 29.93 in 10.0 mi East 15.0 mph - N/A   Overcast
4:58 PM 54.5 °F 54.1 °F 99% 29.95 in 10.0 mi East 13.8 mph - 0.09 in   Overcast
5:04 PM 53.6 °F 53.6 °F 100% 29.93 in 10.0 mi East 17.3 mph - N/A   Light Drizzle
5:19 PM 53.6 °F 53.6 °F 100% 29.92 in 10.0 mi East 16.1 mph - N/A   Light Drizzle
5:58 PM 53.4 °F 52.9 °F 98% 29.95 in 10.0 mi East 12.7 mph - 0.03 in Rain Light Rain
6:09 PM 53.6 °F 51.8 °F 94% 29.92 in 10.0 mi East 15.0 mph - N/A   Overcast
6:13 PM 53.6 °F 51.8 °F 94% 29.92 in 10.0 mi East 16.1 mph - N/A   Light Drizzle
6:23 PM 53.6 °F 51.8 °F 94% 29.91 in 10.0 mi East 12.7 mph - N/A   Overcast
6:30 PM 53.6 °F 51.8 °F 94% 29.92 in 10.0 mi East 16.1 mph - N/A   Light Drizzle
6:40 PM 51.8 °F 51.8 °F 100% 29.92 in 10.0 mi East 13.8 mph - N/A   Overcast
6:58 PM 52.3 °F 51.8 °F 98% 29.94 in 10.0 mi East 12.7 mph - 0.01 in   Overcast
7:01 PM 51.8 °F 51.8 °F 100% 29.91 in 10.0 mi East 9.2 mph - N/A   Light Drizzle
7:11 PM 51.8 °F 51.8 °F 100% 29.91 in 9.0 mi East 13.8 mph - N/A   Light Drizzle
7:16 PM 51.8 °F 51.8 °F 100% 29.91 in 10.0 mi East 13.8 mph - N/A   Overcast
7:26 PM 51.8 °F 51.8 °F 100% 29.91 in 10.0 mi East 16.1 mph - N/A Rain Light Rain
7:31 PM 51.8 °F 51.8 °F 100% 29.91 in 9.0 mi East 13.8 mph - N/A Rain Light Rain
7:56 PM 51.8 °F 51.8 °F 100% 29.91 in 8.0 mi East 13.8 mph - N/A Rain Light Rain
7:58 PM 51.4 °F 51.3 °F 99% 29.93 in 8.0 mi East 15.0 mph - 0.04 in Rain Light Rain
8:01 PM 51.8 °F 51.8 °F 100% 29.91 in 8.0 mi East 12.7 mph - N/A   Overcast
8:11 PM 51.8 °F 51.8 °F 100% 29.91 in 5.0 mi East 11.5 mph - N/A Rain Light Rain
8:16 PM 51.8 °F 51.8 °F 100% 29.91 in 4.0 mi East 10.4 mph - N/A Rain Light Rain
8:19 PM 51.8 °F 51.8 °F 100% 29.91 in 4.0 mi East 12.7 mph - N/A   Overcast
8:24 PM 51.8 °F 50.0 °F 94% 29.90 in 7.0 mi East 12.7 mph - N/A   Overcast
8:49 PM 51.8 °F 50.0 °F 94% 29.90 in 10.0 mi East 12.7 mph - N/A   Overcast
8:58 PM 51.8 °F 51.8 °F 100% 29.92 in 10.0 mi East 11.5 mph - 0.01 in   Overcast
9:18 PM 51.8 °F 51.8 °F 100% 29.90 in 10.0 mi East 11.5 mph - N/A   Overcast
9:58 PM 50.9 °F 50.9 °F 100% 29.91 in 10.0 mi ESE 9.2 mph - N/A   Overcast
10:18 PM 51.8 °F 50.0 °F 94% 29.92 in 10.0 mi ESE 10.4 mph - N/A   Overcast
10:37 PM 51.8 °F 51.8 °F 100% 29.92 in 10.0 mi ESE 9.2 mph - N/A Rain Light Rain
10:48 PM 51.8 °F 51.8 °F 100% 29.91 in 10.0 mi ESE 9.2 mph - N/A   Overcast
10:53 PM 51.8 °F 51.8 °F 100% 29.91 in 10.0 mi East 9.2 mph - N/A   Light Drizzle
10:58 PM 50.9 °F 50.9 °F 100% 29.93 in 10.0 mi East 9.2 mph - 0.01 in   Light Drizzle
11:09 PM 50.0 °F 50.0 °F 100% 29.90 in 10.0 mi ESE 9.2 mph - N/A   Overcast
11:11 PM 50.0 °F 50.0 °F 100% 29.90 in 7.0 mi ESE 8.1 mph - N/A Rain Light Rain
11:16 PM 50.0 °F 50.0 °F 100% 29.89 in 4.0 mi East 8.1 mph - N/A Rain Light Rain
11:21 PM 50.0 °F 50.0 °F 100% 29.89 in 4.0 mi East 10.4 mph - N/A Rain Light Rain
11:26 PM 50.0 °F 50.0 °F 100% 29.89 in 6.0 mi East 10.4 mph - N/A Rain Light Rain
11:30 PM 50.0 °F 50.0 °F 100% 29.89 in 8.0 mi East 10.4 mph - N/A   Overcast
11:50 PM 50.0 °F 50.0 °F 100% 29.90 in 10.0 mi ESE 5.8 mph - N/A   Overcast
11:58 PM 50.9 °F 50.9 °F 100% 29.91 in 8.0 mi ESE 6.9 mph - 0.02 in   Overcast